Hovedside
METAR-TAF:

METAR-TAF

Lufthavner :

Vieux-Fort, Saint Lucia

breddegrad: 13-45N, lengdegrad: 060-57W, høyde over havet: 3 m

Gjeldene værobservasjon

Denne rapporten ble laget for 24 minutter siden, klokken 15:00 UTC
Vind 14 kt fra Øst
Temperatur 32°C
Luftfuktighet 67%
Trykk 1016 hPa
Sikt 10 km eller mer
Få skyer i en høyde av 2900 ft

METAR: TLPL 191500Z 10014KT 9999 FEW029 32/25 Q1016 NOSIG

Tid: 11:24 (15:24 UTC)

Varsel

Denne rapporten ble laget for 4 timer og 24 minutter siden, klokken 11:00 UTC
Varsel gyldig fra 19. klokken 12 UTC til 20. klokken 12 UTC
Vind 16 kt fra Øst
Sikt 10 km eller mer
Spredte skyer i en høyde av 2600 ft
Midlertidig
fra 19. klokken 18 UTC til 19. klokken 24 UTC
regnbyger,

TAF: TLPL 191100Z 1912/2012 10016KT 9999 SCT026 TEMPO 1918/1924 SHRA

Værobservasjoner og værvarsel for over 4000 flyplasser (METAR- og TAF-rapporter).

Tilgjengelige stasjoner er representert av de røde og gule prikkene på kartet.

Hold musepekeren over prikken for å se navnet på stasjonen.

Klikk så for å se værobservasjoner og -varsler.

For å forandre kartet kan du klikke på den grønne knappen med svart kryss for å zoome inn, på den grønne knappen med strek for å zoome ut, eller på de grønne pilene for å se tilstøtende kart.


METAR-TAF: